Horquilla, Argentina
Current Conditions -  °F | °C
As of 8:00 AM on Saturday 22 Nov 2014 (Local Time) from SARE Reporting Station
Few Clouds Few Clouds  
Wind Chill: 19°   Ceiling: Unl
Heat Index: 19°   Visibility: 5mi
Dew Point: 17°   Wind: 3mph
Humidity: 88%   Direction: 50°NE
Pressure: 29.94"   Gusts: NA
Location:  27.53°S, 60.18°W
Report Text: SARE 221100Z 05003KT 8000 FEW008 19/17 Q1014
Loading
Personal Weather Stations






























Interactive Weather Map New forecast layout! Learn more

10-Day Weather Forecast

Advertisements
Track Severe Weather on mobile